Time;durP1;ratioP1;P1;durP2;ratioP2;P2;SDS_P1;SDS_P2;PMS_P1;PMS_P2;Temp;Humidity;BMP_temperature;BMP_pressure;BME280_temperature;BME280_humidity;BME280_pressure;Samples;Min_cycle;Max_cycle;Signal;HPM_P1;HPM_P2
2023/01/30 00:00:18;;;;;;;12.20;11.07;;;15.00;43.30;;;;;;5021148;28;20197;-81
2023/01/30 00:02:46;;;;;;;12.32;11.07;;;14.90;43.20;;;;;;5015397;28;20573;-81
2023/01/30 00:05:14;;;;;;;12.82;11.50;;;14.90;43.40;;;;;;5016640;28;20231;-82
2023/01/30 00:07:41;;;;;;;12.45;11.07;;;14.90;43.50;;;;;;5015671;28;20193;-81
2023/01/30 00:10:11;;;;;;;14.95;11.30;;;14.80;43.40;;;;;;4982807;28;20254;-81
2023/01/30 00:12:38;;;;;;;12.02;10.93;;;14.80;43.50;;;;;;4998278;28;20565;-81
2023/01/30 00:15:07;;;;;;;12.98;11.57;;;14.80;43.50;;;;;;5014443;28;20713;-81
2023/01/30 00:17:34;;;;;;;12.20;11.00;;;14.80;43.50;;;;;;5014553;28;20220;-82
2023/01/30 00:20:02;;;;;;;11.98;10.77;;;14.80;43.50;;;;;;5014498;28;20690;-81
2023/01/30 00:22:29;;;;;;;11.70;10.52;;;14.70;43.40;;;;;;5014725;28;20196;-81
2023/01/30 00:24:56;;;;;;;12.27;11.02;;;14.70;44.00;;;;;;5013757;28;20239;-81
2023/01/30 00:27:25;;;;;;;12.23;10.90;;;14.70;44.10;;;;;;5015527;28;20722;-81
2023/01/30 00:29:52;;;;;;;11.88;10.77;;;14.60;43.30;;;;;;5014642;28;20201;-81
2023/01/30 00:32:20;;;;;;;12.18;10.90;;;14.70;43.40;;;;;;5014285;28;20284;-81
2023/01/30 00:34:47;;;;;;;11.98;10.77;;;14.70;43.30;;;;;;5014572;28;20307;-81
2023/01/30 00:37:14;;;;;;;11.82;10.45;;;14.60;43.30;;;;;;5016027;28;20209;-81
2023/01/30 00:39:41;;;;;;;11.27;10.18;;;14.60;43.40;;;;;;5014235;28;20255;-81
2023/01/30 00:47:43;;;;;;;11.13;9.93;;;14.50;43.30;;;;;;5014453;28;20201;-81
2023/01/30 00:50:11;;;;;;;11.75;10.65;;;14.50;43.40;;;;;;5014662;28;20211;-81
2023/01/30 00:52:38;;;;;;;10.52;9.43;;;14.50;43.30;;;;;;5014445;28;20565;-81
2023/01/30 00:55:05;;;;;;;10.38;9.38;;;14.50;43.30;;;;;;5014394;28;20642;-81
2023/01/30 00:57:33;;;;;;;10.60;9.60;;;14.50;43.30;;;;;;5014944;28;20208;-82
2023/01/30 01:00:04;;;;;;;10.25;9.25;;;14.50;43.30;;;;;;5014182;28;20204;-82
2023/01/30 01:02:31;;;;;;;10.73;9.65;;;14.50;43.40;;;;;;5014397;28;20193;-82
2023/01/30 01:04:58;;;;;;;10.77;9.68;;;14.50;43.40;;;;;;5013510;28;20681;-82
2023/01/30 01:07:27;;;;;;;9.82;8.93;;;14.40;43.30;;;;;;4997380;28;20219;-81
2023/01/30 01:09:54;;;;;;;9.70;8.80;;;14.40;43.30;;;;;;5013854;28;20204;-82
2023/01/30 01:12:20;;;;;;;10.25;9.18;;;14.40;43.40;;;;;;5013510;28;20213;-81
2023/01/30 01:14:48;;;;;;;10.77;9.77;;;14.40;43.30;;;;;;5013496;28;20264;-81
2023/01/30 01:17:18;;;;;;;9.63;8.73;;;14.40;43.40;;;;;;5014157;28;20232;-81
2023/01/30 01:19:45;;;;;;;10.43;9.43;;;14.40;43.40;;;;;;5013235;28;20219;-81
2023/01/30 01:22:12;;;;;;;9.43;8.50;;;14.40;43.60;;;;;;5014346;28;20627;-81
2023/01/30 01:24:39;;;;;;;10.13;9.20;;;14.40;43.70;;;;;;5013391;28;20212;-81
2023/01/30 01:27:08;;;;;;;9.57;8.75;;;14.30;43.60;;;;;;5014218;28;20299;-81
2023/01/30 01:29:35;;;;;;;9.85;8.90;;;14.30;43.40;;;;;;5014174;28;20619;-81
2023/01/30 01:32:03;;;;;;;9.57;8.68;;;14.20;43.30;;;;;;5013427;28;20207;-81
2023/01/30 01:34:31;;;;;;;9.57;8.68;;;14.30;43.50;;;;;;5013523;28;20197;-81
2023/01/30 01:36:58;;;;;;;10.05;9.05;;;14.20;43.40;;;;;;5015883;28;20572;-81
2023/01/30 01:41:00;;;;;;;9.07;8.18;;;14.20;43.50;;;;;;5017329;28;20242;-81
2023/01/30 01:42:12;;;;;;;9.77;8.88;;;14.20;43.60;;;;;;5016934;28;20243;-81
2023/01/30 01:45:00;;;;;;;9.13;8.27;;;14.20;43.60;;;;;;5016644;28;20204;-81
2023/01/30 01:47:28;;;;;;;8.93;8.13;;;14.10;43.60;;;;;;5016970;28;20196;-82
2023/01/30 01:49:57;;;;;;;9.75;8.65;;;14.20;43.70;;;;;;5016807;28;20180;-81
2023/01/30 01:52:24;;;;;;;9.52;8.73;;;14.10;43.70;;;;;;5000595;28;20235;-81
2023/01/30 01:54:52;;;;;;;9.82;8.93;;;14.10;43.60;;;;;;5017249;28;20282;-82
2023/01/30 01:57:23;;;;;;;9.98;8.88;;;14.10;43.70;;;;;;5017072;28;20197;-81
2023/01/30 01:59:51;;;;;;;9.40;8.40;;;14.10;43.50;;;;;;5017741;28;20189;-81
2023/01/30 02:02:18;;;;;;;9.25;8.35;;;14.10;43.60;;;;;;5017081;28;20205;-81
2023/01/30 02:05:02;;;;;;;8.80;8.00;;;14.10;43.70;;;;;;5016853;28;20513;-81
2023/01/30 02:07:33;;;;;;;8.80;8.00;;;14.10;43.70;;;;;;5017925;28;20177;-81
2023/01/30 02:10:01;;;;;;;8.50;7.70;;;14.10;43.70;;;;;;5016734;28;20606;-81
2023/01/30 02:12:28;;;;;;;8.73;7.93;;;14.10;43.80;;;;;;4984295;28;20204;-82
2023/01/30 02:14:56;;;;;;;8.68;7.78;;;14.10;43.70;;;;;;5016520;28;20743;-81
2023/01/30 02:17:24;;;;;;;10.85;8.90;;;14.10;43.70;;;;;;5016605;28;20677;-81
2023/01/30 02:19:53;;;;;;;8.85;8.05;;;14.10;43.70;;;;;;5017897;28;20197;-81
2023/01/30 02:22:59;;;;;;;8.38;7.57;;;14.00;43.70;;;;;;5017104;28;20223;-81
2023/01/30 02:25:57;;;;;;;8.30;7.50;;;14.10;43.80;;;;;;5018791;28;20240;-81
2023/01/30 02:28:56;;;;;;;8.65;7.95;;;14.00;43.70;;;;;;5017485;28;20204;-81
2023/01/30 02:31:32;;;;;;;8.82;8.00;;;14.00;43.80;;;;;;5018420;28;20207;-81
2023/01/30 02:34:09;;;;;;;8.52;7.63;;;14.00;43.70;;;;;;5013397;28;20196;-81
2023/01/30 02:36:43;;;;;;;8.48;7.75;;;14.00;43.60;;;;;;5017804;28;20224;-81
2023/01/30 02:39:15;;;;;;;7.97;7.28;;;14.00;43.70;;;;;;5017149;28;20185;-81
2023/01/30 02:41:46;;;;;;;8.27;7.57;;;14.00;43.60;;;;;;5000798;28;20192;-81
2023/01/30 02:44:16;;;;;;;8.80;7.90;;;14.00;43.50;;;;;;4999865;28;20235;-81
2023/01/30 02:46:49;;;;;;;7.63;6.97;;;13.90;43.60;;;;;;5015840;28;20695;-81
2023/01/30 02:49:17;;;;;;;7.72;7.05;;;13.90;43.60;;;;;;5016349;28;20176;-81
2023/01/30 02:51:44;;;;;;;8.18;7.47;;;13.90;43.50;;;;;;5016785;28;20189;-81
2023/01/30 02:54:12;;;;;;;7.75;7.10;;;13.90;43.40;;;;;;5015390;28;20663;-81
2023/01/30 02:56:46;;;;;;;8.68;7.88;;;13.90;43.50;;;;;;5015406;28;20594;-81
2023/01/30 02:59:14;;;;;;;8.07;7.25;;;13.90;43.50;;;;;;5015300;28;20216;-81
2023/01/30 03:02:14;;;;;;;8.10;7.30;;;13.90;43.50;;;;;;5015302;28;20553;-80
2023/01/30 03:04:53;;;;;;;7.80;7.10;;;13.90;43.50;;;;;;4983234;28;20224;-81
2023/01/30 03:07:27;;;;;;;8.02;7.28;;;13.90;43.50;;;;;;5015490;28;20231;-81
2023/01/30 03:09:59;;;;;;;8.48;7.40;;;13.90;43.50;;;;;;5015022;28;20243;-81
2023/01/30 03:12:32;;;;;;;7.70;7.00;;;13.90;43.30;;;;;;5014901;28;20197;-81
2023/01/30 03:15:01;;;;;;;7.45;6.85;;;13.90;43.30;;;;;;5015149;28;20553;-81
2023/01/30 03:17:29;;;;;;;7.82;7.13;;;13.90;43.40;;;;;;5015027;28;20299;-81
2023/01/30 03:19:57;;;;;;;7.50;6.90;;;13.90;43.40;;;;;;5014941;28;20200;-81
2023/01/30 03:22:24;;;;;;;8.18;7.38;;;13.90;43.50;;;;;;4998530;28;20710;-81
2023/01/30 03:24:52;;;;;;;7.70;7.00;;;13.80;43.30;;;;;;5015017;28;20275;-81
2023/01/30 03:27:19;;;;;;;7.95;7.25;;;13.90;43.30;;;;;;5015414;28;20296;-81
2023/01/30 03:29:47;;;;;;;7.35;6.75;;;13.90;43.30;;;;;;5015610;28;20196;-80
2023/01/30 03:32:15;;;;;;;7.85;7.13;;;13.80;43.20;;;;;;5014801;28;20227;-80
2023/01/30 03:34:42;;;;;;;8.05;7.25;;;13.80;43.20;;;;;;5014930;28;20219;-79
2023/01/30 03:37:12;;;;;;;8.05;7.22;;;13.80;43.30;;;;;;5014684;28;20216;-79
2023/01/30 03:39:38;;;;;;;7.65;6.95;;;13.80;43.30;;;;;;4998384;28;20571;-79
2023/01/30 03:42:07;;;;;;;7.53;6.82;;;13.80;43.40;;;;;;5014648;28;20231;-80
2023/01/30 03:44:34;;;;;;;6.90;6.22;;;13.80;43.50;;;;;;5014617;28;20215;-80
2023/01/30 03:47:01;;;;;;;7.65;6.85;;;13.80;43.60;;;;;;5014413;28;20213;-80
2023/01/30 03:49:28;;;;;;;7.45;6.75;;;13.70;43.40;;;;;;5014503;28;20549;-80
2023/01/30 03:54:34;;;;;;;6.97;6.38;;;13.80;43.40;;;;;;5014304;28;20208;-80
2023/01/30 03:57:01;;;;;;;7.35;6.65;;;13.70;43.50;;;;;;5014176;28;20219;-80
2023/01/30 03:59:28;;;;;;;8.02;7.05;;;13.70;43.40;;;;;;5013298;28;20200;-80
2023/01/30 04:02:03;;;;;;;6.88;6.28;;;13.80;43.10;;;;;;5014661;28;20193;-80
2023/01/30 04:04:32;;;;;;;7.03;6.43;;;13.80;43.40;;;;;;5014326;28;20197;-80
2023/01/30 04:07:00;;;;;;;6.85;6.25;;;13.80;43.10;;;;;;5014175;28;20217;-80
2023/01/30 04:09:27;;;;;;;7.60;6.90;;;13.80;43.40;;;;;;4998592;28;20204;-79
2023/01/30 04:11:56;;;;;;;7.45;6.75;;;13.70;43.10;;;;;;5014278;28;20340;-78
2023/01/30 04:14:25;;;;;;;7.05;6.43;;;13.80;43.70;;;;;;5014335;28;20221;-79
2023/01/30 04:17:10;;;;;;;7.25;6.65;;;13.70;43.70;;;;;;5015323;28;20224;-80
2023/01/30 04:20:10;;;;;;;7.07;6.38;;;13.70;44.00;;;;;;5015284;28;20243;-80
2023/01/30 04:22:42;;;;;;;7.07;6.47;;;13.70;44.00;;;;;;5013997;28;20195;-80
2023/01/30 04:25:09;;;;;;;6.45;5.85;;;13.70;44.20;;;;;;5013923;28;20208;-80
2023/01/30 04:27:38;;;;;;;5.80;5.38;;;13.70;44.30;;;;;;5014498;28;20196;-80
2023/01/30 04:30:12;;;;;;;6.63;5.95;;;13.70;44.50;;;;;;5014207;28;20196;-80
2023/01/30 04:32:40;;;;;;;6.35;5.85;;;13.70;44.60;;;;;;5013925;28;20204;-80
2023/01/30 04:35:09;;;;;;;6.97;6.35;;;13.70;44.20;;;;;;5013677;28;20610;-80
2023/01/30 04:37:36;;;;;;;6.72;6.13;;;13.80;44.30;;;;;;5013338;28;20217;-80
2023/01/30 04:40:05;;;;;;;6.03;5.53;;;13.80;44.20;;;;;;5013520;28;20262;-80
2023/01/30 04:42:32;;;;;;;6.70;6.20;;;13.90;44.10;;;;;;5013440;28;20204;-80
2023/01/30 04:45:20;;;;;;;6.10;5.60;;;14.00;44.00;;;;;;5014589;28;20691;-80
2023/01/30 04:47:49;;;;;;;6.68;6.07;;;14.00;43.80;;;;;;5013358;28;20181;-80
2023/01/30 04:50:16;;;;;;;6.25;5.75;;;14.10;43.80;;;;;;5013385;28;20203;-80
2023/01/30 04:52:44;;;;;;;6.85;6.25;;;14.10;43.60;;;;;;5013849;28;20204;-80
2023/01/30 04:55:12;;;;;;;5.55;5.05;;;14.20;43.70;;;;;;5013248;28;20200;-80
2023/01/30 04:57:40;;;;;;;6.38;5.80;;;14.10;43.80;;;;;;5013236;28;20295;-80
2023/01/30 05:00:09;;;;;;;6.00;5.50;;;14.20;43.50;;;;;;5013474;28;20197;-80
2023/01/30 05:02:42;;;;;;;6.45;5.93;;;14.20;43.60;;;;;;5013363;28;20674;-80
2023/01/30 05:05:10;;;;;;;6.15;5.55;;;14.20;43.40;;;;;;4998015;28;20200;-82
2023/01/30 05:07:37;;;;;;;5.90;5.40;;;14.20;43.30;;;;;;5015740;28;20288;-81
2023/01/30 05:10:05;;;;;;;6.00;5.50;;;14.20;43.10;;;;;;5014165;28;20201;-85
2023/01/30 05:12:32;;;;;;;6.10;5.60;;;14.30;43.00;;;;;;5014678;28;20201;-81
2023/01/30 05:14:59;;;;;;;6.18;5.57;;;14.30;43.10;;;;;;5014966;28;20204;-81
2023/01/30 05:17:26;;;;;;;6.05;5.55;;;14.30;42.50;;;;;;5015792;28;20240;-80
2023/01/30 05:19:55;;;;;;;5.88;5.38;;;14.30;42.60;;;;;;5016556;28;20200;-81
2023/01/30 05:22:21;;;;;;;6.30;5.63;;;14.40;42.60;;;;;;5015590;28;20205;-81
2023/01/30 05:24:49;;;;;;;6.32;5.70;;;14.40;43.10;;;;;;5016195;28;20204;-82
2023/01/30 05:27:16;;;;;;;5.80;5.30;;;14.50;43.30;;;;;;5015515;28;20219;-81
2023/01/30 05:29:43;;;;;;;5.78;5.28;;;14.50;43.00;;;;;;4998385;28;20188;-81
2023/01/30 05:32:10;;;;;;;5.80;5.25;;;14.50;42.90;;;;;;5014295;28;20200;-81
2023/01/30 05:34:37;;;;;;;5.95;5.45;;;14.50;42.70;;;;;;5014278;28;20200;-81
2023/01/30 05:37:05;;;;;;;6.32;5.72;;;14.60;42.70;;;;;;5013498;28;20706;-81
2023/01/30 05:39:33;;;;;;;5.85;5.35;;;14.60;42.50;;;;;;5013199;28;20718;-81
2023/01/30 05:41:59;;;;;;;5.72;5.22;;;14.60;42.60;;;;;;5012559;28;20547;-81
2023/01/30 05:44:27;;;;;;;5.70;5.15;;;14.70;42.80;;;;;;5013960;28;20259;-81
2023/01/30 05:46:54;;;;;;;5.07;4.72;;;14.70;42.80;;;;;;5013039;28;20212;-82
2023/01/30 05:49:21;;;;;;;5.40;4.90;;;14.70;42.80;;;;;;5012833;28;20347;-81
2023/01/30 05:51:48;;;;;;;5.18;4.78;;;14.70;42.90;;;;;;4996580;28;20201;-81
2023/01/30 05:54:16;;;;;;;5.82;5.32;;;14.70;42.80;;;;;;5012956;28;20211;-81
2023/01/30 05:56:48;;;;;;;5.10;4.70;;;14.80;42.50;;;;;;5013164;28;20282;-81
2023/01/30 05:59:17;;;;;;;5.63;5.13;;;14.80;42.50;;;;;;5012559;28;20621;-81
2023/01/30 06:01:44;;;;;;;4.95;4.55;;;14.80;42.00;;;;;;5014091;28;20189;-81
2023/01/30 06:04:11;;;;;;;5.60;5.10;;;14.80;42.40;;;;;;5012778;28;20233;-81
2023/01/30 06:06:39;;;;;;;5.30;4.85;;;14.90;42.40;;;;;;5012471;28;20278;-80
2023/01/30 06:09:06;;;;;;;5.28;4.78;;;14.80;42.40;;;;;;4996325;28;20197;-81
2023/01/30 06:11:34;;;;;;;4.97;4.57;;;14.90;42.30;;;;;;5012210;28;20223;-81
2023/01/30 06:14:01;;;;;;;5.32;4.82;;;14.90;42.60;;;;;;5013110;28;20662;-81
2023/01/30 06:16:28;;;;;;;5.22;4.82;;;14.90;42.50;;;;;;5012708;28;20653;-81
2023/01/30 06:18:56;;;;;;;4.90;4.50;;;14.90;42.20;;;;;;5012803;28;20643;-81
2023/01/30 06:21:23;;;;;;;5.25;4.85;;;14.90;42.20;;;;;;4997110;28;20207;-81
2023/01/30 06:23:50;;;;;;;5.50;5.00;;;14.90;41.80;;;;;;5014827;28;20216;-80
2023/01/30 06:26:17;;;;;;;5.55;4.95;;;15.00;41.80;;;;;;5016128;28;20236;-81
2023/01/30 06:28:45;;;;;;;5.20;4.78;;;15.00;41.80;;;;;;5000294;28;20661;-81
2023/01/30 06:31:13;;;;;;;4.85;4.45;;;15.00;41.90;;;;;;5016615;28;20205;-81
2023/01/30 06:33:40;;;;;;;5.30;4.80;;;15.00;42.10;;;;;;5016176;28;20208;-80
2023/01/30 06:36:08;;;;;;;5.03;4.55;;;14.90;41.90;;;;;;5016543;28;20215;-81
2023/01/30 06:38:35;;;;;;;5.10;4.65;;;14.90;42.10;;;;;;5016135;28;20271;-78
2023/01/30 06:41:02;;;;;;;5.20;4.70;;;14.90;42.20;;;;;;5016310;28;20204;-82
2023/01/30 06:43:29;;;;;;;4.97;4.55;;;15.00;41.90;;;;;;5018023;28;20629;-83
2023/01/30 06:45:59;;;;;;;4.90;4.47;;;15.00;41.70;;;;;;5018724;28;20209;-83
2023/01/30 06:48:27;;;;;;;5.45;4.95;;;15.00;41.80;;;;;;5018100;28;20199;-83
2023/01/30 06:50:54;;;;;;;5.05;4.55;;;15.00;41.40;;;;;;5018987;28;20223;-83
2023/01/30 06:53:24;;;;;;;4.90;4.40;;;15.00;41.70;;;;;;5020354;28;20227;-83
2023/01/30 06:55:51;;;;;;;5.28;4.78;;;15.10;41.60;;;;;;5018913;28;20312;-83
2023/01/30 06:58:18;;;;;;;4.85;4.45;;;15.00;41.30;;;;;;5017630;28;20229;-83
2023/01/30 07:00:45;;;;;;;4.80;4.40;;;15.10;41.50;;;;;;5018620;28;20223;-83
2023/01/30 07:03:14;;;;;;;4.55;4.25;;;15.00;41.20;;;;;;5017952;28;20652;-83
2023/01/30 07:05:41;;;;;;;4.90;4.38;;;15.10;41.60;;;;;;5017980;28;20256;-83
2023/01/30 07:08:08;;;;;;;4.97;4.45;;;15.10;41.60;;;;;;5018294;28;20200;-83
2023/01/30 07:10:36;;;;;;;5.00;4.60;;;15.10;41.40;;;;;;5018712;28;20205;-83
2023/01/30 07:13:03;;;;;;;4.53;4.10;;;15.10;41.40;;;;;;5018728;28;20201;-83
2023/01/30 07:15:31;;;;;;;4.63;4.22;;;15.10;41.80;;;;;;5018723;28;20304;-83
2023/01/30 07:17:58;;;;;;;4.47;4.10;;;15.10;41.60;;;;;;5017822;28;20282;-83
2023/01/30 07:20:28;;;;;;;4.20;3.85;;;15.10;41.70;;;;;;5018505;28;20224;-83
2023/01/30 07:22:56;;;;;;;4.25;3.95;;;15.10;41.80;;;;;;5018921;28;20287;-83
2023/01/30 07:25:25;;;;;;;4.90;4.50;;;15.10;41.80;;;;;;5018534;28;20229;-83
2023/01/30 07:27:52;;;;;;;4.63;4.15;;;15.10;41.90;;;;;;5018486;28;20197;-83
2023/01/30 07:30:19;;;;;;;4.43;4.03;;;15.10;41.70;;;;;;5017987;28;20197;-83
2023/01/30 07:32:50;;;;;;;4.68;4.28;;;15.20;41.70;;;;;;5017355;28;20200;-83
2023/01/30 07:35:17;;;;;;;4.70;4.30;;;15.20;41.90;;;;;;5016929;28;20563;-83
2023/01/30 07:37:46;;;;;;;4.70;4.30;;;15.20;41.80;;;;;;4999030;28;20270;-83
2023/01/30 07:40:14;;;;;;;4.55;4.15;;;15.20;41.60;;;;;;5016161;28;20205;-83
2023/01/30 07:42:41;;;;;;;4.85;4.20;;;15.20;41.70;;;;;;5015486;28;20205;-83
2023/01/30 07:45:09;;;;;;;4.40;4.00;;;15.20;41.40;;;;;;5015446;28;20211;-83
2023/01/30 07:47:37;;;;;;;4.30;4.00;;;15.30;41.80;;;;;;5014848;28;20212;-83
2023/01/30 07:50:05;;;;;;;4.35;3.95;;;15.20;41.50;;;;;;5015078;28;20250;-83
2023/01/30 07:52:32;;;;;;;4.10;3.80;;;15.30;41.60;;;;;;5015287;28;20656;-83
2023/01/30 07:55:01;;;;;;;4.15;3.83;;;15.30;42.20;;;;;;5015027;28;20232;-83
2023/01/30 07:57:28;;;;;;;4.90;4.43;;;15.40;41.60;;;;;;5015916;28;20216;-83
2023/01/30 07:59:55;;;;;;;4.10;3.70;;;15.30;41.50;;;;;;5015929;28;20196;-83
2023/01/30 08:02:22;;;;;;;3.95;3.65;;;15.40;41.40;;;;;;5015624;28;20267;-83
2023/01/30 08:04:49;;;;;;;4.05;3.72;;;15.40;41.40;;;;;;5015170;28;20197;-83
2023/01/30 08:07:16;;;;;;;5.28;3.95;;;15.40;41.50;;;;;;5015266;28;20257;-83
2023/01/30 08:09:43;;;;;;;4.05;3.75;;;15.50;41.60;;;;;;5014757;28;20196;-83
2023/01/30 08:12:12;;;;;;;4.07;3.70;;;15.50;41.60;;;;;;5014866;28;20574;-83
2023/01/30 08:14:40;;;;;;;3.65;3.35;;;15.50;41.40;;;;;;5014032;28;20204;-83
2023/01/30 08:17:07;;;;;;;4.53;4.13;;;15.50;41.50;;;;;;5014552;28;20220;-83
2023/01/30 08:19:34;;;;;;;4.07;3.67;;;15.50;41.50;;;;;;5014830;28;20201;-83
2023/01/30 08:22:01;;;;;;;3.88;3.58;;;15.50;41.40;;;;;;5015019;28;20671;-83
2023/01/30 08:24:28;;;;;;;3.78;3.47;;;15.50;41.30;;;;;;5014264;28;20201;-84
2023/01/30 08:26:55;;;;;;;3.78;3.47;;;15.50;41.40;;;;;;5014667;28;20220;-83
2023/01/30 08:29:23;;;;;;;3.88;3.58;;;15.60;41.40;;;;;;5013823;28;20197;-83
2023/01/30 08:31:50;;;;;;;3.55;3.25;;;15.60;41.40;;;;;;5014340;28;20204;-83
2023/01/30 08:34:17;;;;;;;3.50;3.20;;;15.60;41.20;;;;;;5014717;28;20255;-83
2023/01/30 08:36:45;;;;;;;3.70;3.40;;;15.60;41.40;;;;;;5013775;28;20244;-83
2023/01/30 08:39:13;;;;;;;3.60;3.30;;;15.60;41.20;;;;;;5013402;28;20217;-83
2023/01/30 08:41:42;;;;;;;3.60;3.30;;;15.60;41.20;;;;;;5013788;28;20224;-83
2023/01/30 08:44:09;;;;;;;3.88;3.58;;;15.70;41.20;;;;;;5013937;28;20197;-83
2023/01/30 08:46:38;;;;;;;3.70;3.40;;;15.70;41.30;;;;;;5013919;28;20223;-83
2023/01/30 08:49:05;;;;;;;3.50;3.22;;;15.70;41.20;;;;;;5013690;28;20197;-83
2023/01/30 08:51:32;;;;;;;3.60;3.30;;;15.80;41.30;;;;;;5013674;28;20219;-83
2023/01/30 08:53:59;;;;;;;3.65;3.45;;;15.80;41.30;;;;;;5013305;28;20201;-83
2023/01/30 08:56:27;;;;;;;3.92;3.45;;;15.90;41.20;;;;;;5014032;28;20551;-83
2023/01/30 08:58:54;;;;;;;3.88;3.58;;;15.90;41.30;;;;;;5013545;28;20235;-83
2023/01/30 09:01:21;;;;;;;3.50;3.20;;;16.00;41.20;;;;;;5013682;28;20205;-83
2023/01/30 09:03:50;;;;;;;3.20;2.90;;;15.90;41.00;;;;;;5013522;28;20200;-83
2023/01/30 09:06:16;;;;;;;3.90;3.55;;;16.00;40.80;;;;;;5013571;28;20604;-83
2023/01/30 09:08:43;;;;;;;3.30;3.00;;;16.00;40.80;;;;;;5013220;28;20659;-83
2023/01/30 09:11:11;;;;;;;3.60;3.30;;;16.10;40.70;;;;;;5013123;28;20238;-83
2023/01/30 09:13:42;;;;;;;3.20;2.90;;;16.10;40.60;;;;;;5012929;28;20207;-83
2023/01/30 09:16:10;;;;;;;3.53;3.28;;;16.10;40.60;;;;;;5013500;28;20224;-83
2023/01/30 09:18:39;;;;;;;3.65;3.25;;;16.20;40.60;;;;;;5013611;28;20324;-83
2023/01/30 09:21:07;;;;;;;3.50;3.20;;;16.20;40.50;;;;;;5013670;28;20620;-83
2023/01/30 09:23:35;;;;;;;3.25;2.90;;;16.30;40.30;;;;;;5013220;28;20266;-83
2023/01/30 09:26:02;;;;;;;3.40;3.10;;;16.30;40.40;;;;;;5013382;28;20220;-83
2023/01/30 09:28:29;;;;;;;3.20;3.00;;;16.40;40.50;;;;;;5014318;28;20196;-83
2023/01/30 09:30:57;;;;;;;3.47;3.17;;;16.40;40.80;;;;;;5015273;28;20185;-83
2023/01/30 09:33:24;;;;;;;3.10;2.90;;;16.40;40.60;;;;;;5013972;28;20616;-83
2023/01/30 09:35:51;;;;;;;2.85;2.65;;;16.40;40.40;;;;;;5013535;28;20741;-84
2023/01/30 09:38:20;;;;;;;2.90;2.70;;;16.40;40.40;;;;;;5015183;28;20224;-84
2023/01/30 09:40:53;;;;;;;3.13;2.88;;;16.40;40.40;;;;;;5014914;28;20210;-84
2023/01/30 09:43:28;;;;;;;3.22;2.92;;;16.40;40.60;;;;;;5013931;28;20239;-84
2023/01/30 09:46:01;;;;;;;3.38;3.10;;;16.40;40.60;;;;;;5014136;28;20224;-84
2023/01/30 09:48:31;;;;;;;3.50;3.20;;;16.40;40.40;;;;;;5013031;28;20197;-84
2023/01/30 09:51:37;;;;;;;3.17;2.75;;;16.40;40.30;;;;;;5012991;28;20196;-84
2023/01/30 09:54:19;;;;;;;3.00;2.80;;;16.40;40.50;;;;;;5007157;28;20319;-84
2023/01/30 09:56:46;;;;;;;3.40;3.10;;;16.40;40.50;;;;;;5013425;28;20334;-84
2023/01/30 09:59:19;;;;;;;2.92;2.72;;;16.40;40.40;;;;;;5015486;28;20590;-84
2023/01/30 10:01:51;;;;;;;3.20;2.90;;;16.40;40.40;;;;;;5016529;28;20248;-84
2023/01/30 10:04:21;;;;;;;3.33;3.03;;;16.40;40.50;;;;;;5016386;28;20197;-84
2023/01/30 10:06:58;;;;;;;2.60;2.40;;;16.40;40.50;;;;;;5016325;28;20586;-84
2023/01/30 10:09:33;;;;;;;3.25;2.50;;;16.40;40.60;;;;;;5016174;28;20190;-84
2023/01/30 10:12:11;;;;;;;3.15;2.95;;;16.50;40.80;;;;;;5016478;28;20196;-84
2023/01/30 10:14:50;;;;;;;3.05;2.45;;;16.40;40.70;;;;;;5017124;28;20206;-84
2023/01/30 10:17:27;;;;;;;2.70;2.50;;;16.50;40.80;;;;;;5016726;28;20630;-84
2023/01/30 10:19:59;;;;;;;2.75;2.55;;;16.50;41.00;;;;;;5015897;28;20196;-84
2023/01/30 10:22:34;;;;;;;2.70;2.50;;;16.50;40.80;;;;;;5017317;28;20216;-84
2023/01/30 10:25:10;;;;;;;2.88;2.58;;;16.50;40.70;;;;;;5016841;28;20251;-84
2023/01/30 10:27:48;;;;;;;2.80;2.60;;;16.50;40.60;;;;;;5016652;28;20204;-84
2023/01/30 10:30:16;;;;;;;2.50;2.30;;;16.60;40.70;;;;;;5017148;28;20203;-84
2023/01/30 10:32:46;;;;;;;2.42;2.22;;;16.50;40.70;;;;;;5016707;28;20235;-84
2023/01/30 10:35:15;;;;;;;2.70;2.50;;;16.60;40.90;;;;;;5018959;28;20211;-84
2023/01/30 10:37:44;;;;;;;2.70;2.50;;;16.50;40.60;;;;;;5023811;28;20193;-84
2023/01/30 10:40:17;;;;;;;2.63;2.42;;;16.50;40.80;;;;;;5016869;28;20251;-84
2023/01/30 10:42:46;;;;;;;3.08;2.78;;;16.60;40.60;;;;;;5017619;28;20347;-84
2023/01/30 10:45:16;;;;;;;2.40;2.30;;;16.60;40.80;;;;;;5016463;28;20197;-84
2023/01/30 10:47:55;;;;;;;2.88;2.30;;;16.60;40.60;;;;;;5016009;28;20616;-84
2023/01/30 10:50:25;;;;;;;2.20;2.10;;;16.60;40.60;;;;;;5015969;28;20658;-84
2023/01/30 10:52:55;;;;;;;2.55;2.35;;;16.60;40.80;;;;;;5016543;28;20267;-84
2023/01/30 10:55:29;;;;;;;2.38;2.17;;;16.60;40.70;;;;;;4999622;28;20323;-84
2023/01/30 10:57:58;;;;;;;2.60;2.40;;;16.70;40.90;;;;;;5015469;28;20204;-84
2023/01/30 11:00:28;;;;;;;2.40;2.20;;;16.60;40.70;;;;;;5015426;28;20227;-84
2023/01/30 11:03:04;;;;;;;2.42;2.22;;;16.60;40.80;;;;;;4999797;28;20550;-84
2023/01/30 11:05:38;;;;;;;2.00;1.90;;;16.60;40.80;;;;;;5016063;28;20224;-84
2023/01/30 11:08:08;;;;;;;2.40;2.20;;;16.60;40.80;;;;;;4999615;28;20643;-84
2023/01/30 11:10:37;;;;;;;2.35;2.15;;;16.60;40.90;;;;;;4998942;28;20208;-84
2023/01/30 11:13:12;;;;;;;2.10;2.00;;;16.70;40.90;;;;;;5015873;28;20196;-84
2023/01/30 11:15:40;;;;;;;2.45;2.25;;;16.70;41.00;;;;;;5014789;28;20271;-84
2023/01/30 11:18:07;;;;;;;2.58;2.38;;;16.70;40.90;;;;;;5014783;28;20576;-84
2023/01/30 11:20:39;;;;;;;2.03;1.92;;;16.70;41.00;;;;;;5015194;28;20607;-84
2023/01/30 11:23:07;;;;;;;2.35;2.20;;;16.70;41.00;;;;;;5015291;28;20221;-84
2023/01/30 11:25:47;;;;;;;2.30;2.10;;;16.70;41.10;;;;;;5015036;28;20224;-84
2023/01/30 11:28:16;;;;;;;2.38;2.17;;;16.70;41.10;;;;;;5014993;28;20616;-84
2023/01/30 11:30:43;;;;;;;2.10;1.90;;;16.70;41.80;;;;;;5014878;28;20640;-84
2023/01/30 11:33:12;;;;;;;2.20;2.00;;;16.70;41.10;;;;;;5015009;28;20200;-84
2023/01/30 11:35:42;;;;;;;1.77;1.67;;;16.70;41.00;;;;;;5015570;28;20220;-84
2023/01/30 11:38:20;;;;;;;1.98;1.88;;;16.70;41.00;;;;;;5015459;28;20208;-84
2023/01/30 11:40:49;;;;;;;1.83;1.73;;;16.70;41.00;;;;;;5014884;28;20609;-84
2023/01/30 11:43:16;;;;;;;2.10;2.00;;;16.80;41.10;;;;;;5015894;28;20192;-84
2023/01/30 11:45:44;;;;;;;1.98;1.88;;;16.80;41.10;;;;;;5014421;28;20695;-84
2023/01/30 11:48:15;;;;;;;2.13;2.03;;;16.70;40.90;;;;;;4998135;28;20209;-84
2023/01/30 11:50:43;;;;;;;2.40;2.20;;;16.80;41.20;;;;;;5014408;28;20224;-84
2023/01/30 11:53:24;;;;;;;2.10;2.00;;;16.80;41.20;;;;;;5014422;28;20193;-84
2023/01/30 11:55:54;;;;;;;2.05;1.95;;;16.70;41.30;;;;;;5014260;28;20224;-84
2023/01/30 11:58:21;;;;;;;2.13;2.00;;;16.80;41.30;;;;;;5014016;28;20227;-84
2023/01/30 12:00:49;;;;;;;2.20;2.00;;;16.70;41.10;;;;;;5014593;28;20205;-84
2023/01/30 12:03:18;;;;;;;2.40;2.20;;;16.80;41.20;;;;;;5014379;28;20248;-84
2023/01/30 12:05:46;;;;;;;2.15;1.95;;;16.80;41.20;;;;;;5014967;28;20251;-85
2023/01/30 12:08:24;;;;;;;2.20;2.00;;;16.80;41.20;;;;;;5014142;28;20609;-84
2023/01/30 12:10:54;;;;;;;2.28;2.10;;;16.80;41.30;;;;;;5014294;28;20228;-84
2023/01/30 12:13:24;;;;;;;2.30;2.10;;;16.80;41.20;;;;;;5014983;28;20296;-84
2023/01/30 12:15:58;;;;;;;2.20;2.10;;;16.80;41.20;;;;;;5014177;28;20315;-84
2023/01/30 12:18:27;;;;;;;2.00;1.90;;;16.80;41.30;;;;;;5014143;28;20682;-84
2023/01/30 12:20:56;;;;;;;2.40;2.20;;;16.80;41.30;;;;;;5013612;28;20585;-84
2023/01/30 12:23:27;;;;;;;2.30;2.10;;;16.80;41.20;;;;;;5014955;28;20204;-84
2023/01/30 12:25:58;;;;;;;2.85;1.90;;;16.80;41.30;;;;;;5014640;28;20216;-84
2023/01/30 12:28:29;;;;;;;2.47;2.28;;;16.70;41.30;;;;;;5014370;28;20214;-84
2023/01/30 12:30:57;;;;;;;2.30;2.10;;;16.80;41.50;;;;;;5014892;28;20188;-84
2023/01/30 12:33:26;;;;;;;2.13;1.92;;;16.70;41.40;;;;;;5014826;28;20555;-84
2023/01/30 12:36:01;;;;;;;2.10;2.00;;;16.80;41.50;;;;;;5015406;28;20224;-84
2023/01/30 12:38:37;;;;;;;2.10;1.98;;;16.70;41.40;;;;;;5015760;28;20287;-84
2023/01/30 12:41:16;;;;;;;2.35;1.92;;;16.80;41.50;;;;;;5015525;28;20283;-84
2023/01/30 12:43:53;;;;;;;2.13;2.03;;;16.80;41.50;;;;;;4999136;28;20200;-84
2023/01/30 12:46:32;;;;;;;1.77;1.67;;;16.80;41.50;;;;;;5014852;28;20216;-84
2023/01/30 12:49:08;;;;;;;2.47;2.28;;;16.80;41.70;;;;;;5014660;28;20196;-83
2023/01/30 12:51:52;;;;;;;2.30;2.10;;;16.80;41.50;;;;;;5013993;28;20568;-83
2023/01/30 12:54:29;;;;;;;2.40;2.20;;;16.70;41.50;;;;;;5014023;28;20192;-83
2023/01/30 12:57:03;;;;;;;2.20;2.10;;;16.80;41.70;;;;;;5014145;28;20255;-83
2023/01/30 12:59:32;;;;;;;2.00;1.90;;;16.70;41.60;;;;;;5013773;28;20295;-84
2023/01/30 13:02:19;;;;;;;2.10;1.90;;;16.70;41.60;;;;;;5014548;28;20201;-84
2023/01/30 13:04:49;;;;;;;2.28;2.08;;;16.70;41.50;;;;;;5014767;28;20200;-84
2023/01/30 13:07:18;;;;;;;2.10;1.90;;;16.80;41.60;;;;;;5013949;28;20274;-84